sensor_id;sensor_type;location;lat;lon;timestamp;P1;durP1;ratioP1;P2;durP2;ratioP2
31618;SDS011;18230;51.502;7.108;2023-05-19T00:00:53;12.63;;;4.57;;
31618;SDS011;18230;51.502;7.108;2023-05-19T00:05:54;14.65;;;4.57;;
31618;SDS011;18230;51.502;7.108;2023-05-19T00:10:57;12.32;;;4.32;;
31618;SDS011;18230;51.502;7.108;2023-05-19T00:15:58;12.55;;;3.83;;
31618;SDS011;18230;51.502;7.108;2023-05-19T00:20:59;15.90;;;4.50;;
31618;SDS011;18230;51.502;7.108;2023-05-19T00:26:00;11.98;;;3.90;;
31618;SDS011;18230;51.502;7.108;2023-05-19T00:31:01;12.25;;;4.10;;
31618;SDS011;18230;51.502;7.108;2023-05-19T00:36:04;11.90;;;3.50;;
31618;SDS011;18230;51.502;7.108;2023-05-19T00:41:05;10.60;;;4.00;;
31618;SDS011;18230;51.502;7.108;2023-05-19T00:46:06;13.07;;;4.40;;
31618;SDS011;18230;51.502;7.108;2023-05-19T00:51:07;16.75;;;4.80;;
31618;SDS011;18230;51.502;7.108;2023-05-19T00:56:08;11.98;;;4.10;;
31618;SDS011;18230;51.502;7.108;2023-05-19T01:01:09;10.95;;;4.15;;
31618;SDS011;18230;51.502;7.108;2023-05-19T01:06:11;13.02;;;4.25;;
31618;SDS011;18230;51.502;7.108;2023-05-19T01:11:11;13.73;;;4.68;;
31618;SDS011;18230;51.502;7.108;2023-05-19T01:22:05;17.90;;;4.40;;
31618;SDS011;18230;51.502;7.108;2023-05-19T01:32:52;14.27;;;4.50;;
31618;SDS011;18230;51.502;7.108;2023-05-19T01:37:56;11.40;;;4.10;;
31618;SDS011;18230;51.502;7.108;2023-05-19T01:43:00;13.00;;;4.38;;
31618;SDS011;18230;51.502;7.108;2023-05-19T01:48:02;18.92;;;5.13;;
31618;SDS011;18230;51.502;7.108;2023-05-19T01:53:03;12.38;;;4.28;;
31618;SDS011;18230;51.502;7.108;2023-05-19T02:03:27;17.08;;;4.90;;
31618;SDS011;18230;51.502;7.108;2023-05-19T02:08:42;16.70;;;5.18;;
31618;SDS011;18230;51.502;7.108;2023-05-19T02:13:50;11.35;;;4.57;;
31618;SDS011;18230;51.502;7.108;2023-05-19T02:18:55;11.43;;;4.57;;
31618;SDS011;18230;51.502;7.108;2023-05-19T02:23:58;13.70;;;4.70;;
31618;SDS011;18230;51.502;7.108;2023-05-19T02:28:59;14.10;;;4.68;;
31618;SDS011;18230;51.502;7.108;2023-05-19T02:33:59;14.90;;;5.18;;
31618;SDS011;18230;51.502;7.108;2023-05-19T02:39:00;15.43;;;5.13;;
31618;SDS011;18230;51.502;7.108;2023-05-19T02:44:01;16.02;;;5.28;;
31618;SDS011;18230;51.502;7.108;2023-05-19T02:49:02;14.57;;;4.57;;
31618;SDS011;18230;51.502;7.108;2023-05-19T02:54:03;15.63;;;5.78;;
31618;SDS011;18230;51.502;7.108;2023-05-19T02:59:04;10.73;;;5.47;;
31618;SDS011;18230;51.502;7.108;2023-05-19T03:04:05;23.77;;;6.38;;
31618;SDS011;18230;51.502;7.108;2023-05-19T03:09:05;15.50;;;6.40;;
31618;SDS011;18230;51.502;7.108;2023-05-19T03:14:06;13.70;;;6.00;;
31618;SDS011;18230;51.502;7.108;2023-05-19T03:19:11;14.07;;;5.20;;
31618;SDS011;18230;51.502;7.108;2023-05-19T03:24:11;16.70;;;6.20;;
31618;SDS011;18230;51.502;7.108;2023-05-19T03:29:12;12.30;;;5.95;;
31618;SDS011;18230;51.502;7.108;2023-05-19T03:34:13;16.15;;;5.82;;
31618;SDS011;18230;51.502;7.108;2023-05-19T03:39:14;12.40;;;6.53;;
31618;SDS011;18230;51.502;7.108;2023-05-19T03:44:15;17.33;;;6.65;;
31618;SDS011;18230;51.502;7.108;2023-05-19T03:49:16;20.55;;;6.53;;
31618;SDS011;18230;51.502;7.108;2023-05-19T03:54:17;12.80;;;6.22;;
31618;SDS011;18230;51.502;7.108;2023-05-19T03:59:18;17.92;;;6.65;;
31618;SDS011;18230;51.502;7.108;2023-05-19T04:04:19;17.20;;;7.53;;
31618;SDS011;18230;51.502;7.108;2023-05-19T04:09:20;13.05;;;6.13;;
31618;SDS011;18230;51.502;7.108;2023-05-19T04:14:23;15.05;;;6.65;;
31618;SDS011;18230;51.502;7.108;2023-05-19T04:19:23;14.27;;;6.78;;
31618;SDS011;18230;51.502;7.108;2023-05-19T04:24:24;16.67;;;7.13;;
31618;SDS011;18230;51.502;7.108;2023-05-19T04:29:25;14.48;;;6.70;;
31618;SDS011;18230;51.502;7.108;2023-05-19T04:34:28;16.30;;;6.82;;
31618;SDS011;18230;51.502;7.108;2023-05-19T04:39:29;16.40;;;6.70;;
31618;SDS011;18230;51.502;7.108;2023-05-19T04:44:31;18.20;;;7.40;;
31618;SDS011;18230;51.502;7.108;2023-05-19T04:49:36;18.65;;;7.38;;
31618;SDS011;18230;51.502;7.108;2023-05-19T04:54:40;18.52;;;6.80;;
31618;SDS011;18230;51.502;7.108;2023-05-19T04:59:40;22.02;;;7.20;;
31618;SDS011;18230;51.502;7.108;2023-05-19T05:04:41;22.98;;;7.53;;
31618;SDS011;18230;51.502;7.108;2023-05-19T05:09:43;16.30;;;7.78;;
31618;SDS011;18230;51.502;7.108;2023-05-19T05:14:44;20.92;;;6.82;;
31618;SDS011;18230;51.502;7.108;2023-05-19T05:19:45;13.45;;;6.88;;
31618;SDS011;18230;51.502;7.108;2023-05-19T05:24:47;14.45;;;6.75;;
31618;SDS011;18230;51.502;7.108;2023-05-19T05:29:48;18.50;;;6.97;;
31618;SDS011;18230;51.502;7.108;2023-05-19T05:34:49;18.85;;;7.47;;
31618;SDS011;18230;51.502;7.108;2023-05-19T05:39:50;21.00;;;7.03;;
31618;SDS011;18230;51.502;7.108;2023-05-19T05:44:51;23.15;;;6.72;;
31618;SDS011;18230;51.502;7.108;2023-05-19T05:49:51;20.98;;;6.78;;
31618;SDS011;18230;51.502;7.108;2023-05-19T05:54:52;16.90;;;5.97;;
31618;SDS011;18230;51.502;7.108;2023-05-19T05:59:54;14.98;;;6.88;;
31618;SDS011;18230;51.502;7.108;2023-05-19T06:04:54;15.45;;;5.70;;
31618;SDS011;18230;51.502;7.108;2023-05-19T06:09:55;9.77;;;5.32;;
31618;SDS011;18230;51.502;7.108;2023-05-19T06:14:56;12.18;;;5.32;;
31618;SDS011;18230;51.502;7.108;2023-05-19T06:19:56;11.73;;;4.65;;
31618;SDS011;18230;51.502;7.108;2023-05-19T06:24:57;12.85;;;4.80;;
31618;SDS011;18230;51.502;7.108;2023-05-19T06:29:58;13.07;;;4.65;;
31618;SDS011;18230;51.502;7.108;2023-05-19T06:34:59;16.38;;;4.95;;
31618;SDS011;18230;51.502;7.108;2023-05-19T06:39:59;12.52;;;4.22;;
31618;SDS011;18230;51.502;7.108;2023-05-19T06:45:00;11.68;;;4.22;;
31618;SDS011;18230;51.502;7.108;2023-05-19T06:50:01;16.80;;;4.78;;
31618;SDS011;18230;51.502;7.108;2023-05-19T06:55:02;12.25;;;3.60;;
31618;SDS011;18230;51.502;7.108;2023-05-19T07:00:03;16.77;;;4.30;;
31618;SDS011;18230;51.502;7.108;2023-05-19T07:05:06;14.90;;;4.63;;
31618;SDS011;18230;51.502;7.108;2023-05-19T07:10:07;16.40;;;4.43;;
31618;SDS011;18230;51.502;7.108;2023-05-19T07:15:08;11.02;;;4.18;;
31618;SDS011;18230;51.502;7.108;2023-05-19T07:20:09;13.38;;;4.28;;
31618;SDS011;18230;51.502;7.108;2023-05-19T07:25:10;16.27;;;4.57;;
31618;SDS011;18230;51.502;7.108;2023-05-19T07:30:11;12.02;;;3.92;;
31618;SDS011;18230;51.502;7.108;2023-05-19T07:35:12;13.57;;;3.72;;
31618;SDS011;18230;51.502;7.108;2023-05-19T07:40:13;13.25;;;3.40;;
31618;SDS011;18230;51.502;7.108;2023-05-19T07:45:14;11.02;;;3.88;;
31618;SDS011;18230;51.502;7.108;2023-05-19T07:50:15;9.75;;;3.10;;
31618;SDS011;18230;51.502;7.108;2023-05-19T07:55:15;14.73;;;3.40;;
31618;SDS011;18230;51.502;7.108;2023-05-19T08:00:17;9.45;;;2.70;;
31618;SDS011;18230;51.502;7.108;2023-05-19T08:05:17;12.15;;;3.20;;
31618;SDS011;18230;51.502;7.108;2023-05-19T08:10:18;12.27;;;3.08;;
31618;SDS011;18230;51.502;7.108;2023-05-19T08:15:19;10.95;;;2.97;;
31618;SDS011;18230;51.502;7.108;2023-05-19T08:20:20;9.82;;;3.05;;
31618;SDS011;18230;51.502;7.108;2023-05-19T08:25:21;7.88;;;3.17;;
31618;SDS011;18230;51.502;7.108;2023-05-19T08:30:22;11.80;;;3.35;;
31618;SDS011;18230;51.502;7.108;2023-05-19T08:35:23;8.95;;;2.55;;
31618;SDS011;18230;51.502;7.108;2023-05-19T08:40:24;12.23;;;2.78;;
31618;SDS011;18230;51.502;7.108;2023-05-19T08:45:30;12.07;;;2.60;;
31618;SDS011;18230;51.502;7.108;2023-05-19T08:50:34;9.45;;;2.78;;
31618;SDS011;18230;51.502;7.108;2023-05-19T08:55:50;9.05;;;2.22;;
31618;SDS011;18230;51.502;7.108;2023-05-19T09:00:57;14.52;;;2.85;;
31618;SDS011;18230;51.502;7.108;2023-05-19T09:05:59;10.63;;;2.30;;
31618;SDS011;18230;51.502;7.108;2023-05-19T09:11:00;9.10;;;2.42;;
31618;SDS011;18230;51.502;7.108;2023-05-19T09:16:02;11.25;;;2.40;;
31618;SDS011;18230;51.502;7.108;2023-05-19T09:21:03;11.90;;;2.85;;
31618;SDS011;18230;51.502;7.108;2023-05-19T09:26:06;10.43;;;2.58;;
31618;SDS011;18230;51.502;7.108;2023-05-19T09:31:07;8.15;;;2.47;;
31618;SDS011;18230;51.502;7.108;2023-05-19T09:36:08;7.85;;;2.45;;
31618;SDS011;18230;51.502;7.108;2023-05-19T09:41:13;9.15;;;2.30;;
31618;SDS011;18230;51.502;7.108;2023-05-19T09:46:14;7.80;;;2.17;;
31618;SDS011;18230;51.502;7.108;2023-05-19T09:51:15;12.30;;;2.75;;
31618;SDS011;18230;51.502;7.108;2023-05-19T09:56:16;7.03;;;2.60;;
31618;SDS011;18230;51.502;7.108;2023-05-19T10:01:22;9.32;;;2.35;;
31618;SDS011;18230;51.502;7.108;2023-05-19T10:06:24;7.13;;;2.00;;
31618;SDS011;18230;51.502;7.108;2023-05-19T10:11:25;9.23;;;2.17;;
31618;SDS011;18230;51.502;7.108;2023-05-19T10:16:28;12.73;;;2.50;;
31618;SDS011;18230;51.502;7.108;2023-05-19T10:21:30;8.55;;;2.80;;
31618;SDS011;18230;51.502;7.108;2023-05-19T10:26:32;8.88;;;2.38;;
31618;SDS011;18230;51.502;7.108;2023-05-19T10:31:34;7.53;;;2.13;;
31618;SDS011;18230;51.502;7.108;2023-05-19T10:36:43;10.10;;;2.83;;
31618;SDS011;18230;51.502;7.108;2023-05-19T10:41:52;10.70;;;2.33;;
31618;SDS011;18230;51.502;7.108;2023-05-19T10:47:05;10.07;;;2.67;;
31618;SDS011;18230;51.502;7.108;2023-05-19T10:52:23;7.10;;;2.40;;
31618;SDS011;18230;51.502;7.108;2023-05-19T10:57:29;7.40;;;2.08;;
31618;SDS011;18230;51.502;7.108;2023-05-19T11:07:39;8.45;;;3.45;;
31618;SDS011;18230;51.502;7.108;2023-05-19T11:12:43;8.88;;;2.60;;
31618;SDS011;18230;51.502;7.108;2023-05-19T11:17:46;8.77;;;2.72;;
31618;SDS011;18230;51.502;7.108;2023-05-19T11:28:14;7.13;;;2.33;;
31618;SDS011;18230;51.502;7.108;2023-05-19T11:33:20;8.20;;;2.67;;
31618;SDS011;18230;51.502;7.108;2023-05-19T11:38:26;8.48;;;2.55;;
31618;SDS011;18230;51.502;7.108;2023-05-19T11:43:28;9.52;;;2.20;;
31618;SDS011;18230;51.502;7.108;2023-05-19T11:48:29;7.93;;;2.53;;
31618;SDS011;18230;51.502;7.108;2023-05-19T11:53:30;8.57;;;2.30;;
31618;SDS011;18230;51.502;7.108;2023-05-19T11:58:35;11.77;;;2.15;;
31618;SDS011;18230;51.502;7.108;2023-05-19T12:03:36;8.48;;;2.55;;
31618;SDS011;18230;51.502;7.108;2023-05-19T12:08:37;11.13;;;2.67;;
31618;SDS011;18230;51.502;7.108;2023-05-19T12:13:38;7.05;;;2.33;;
31618;SDS011;18230;51.502;7.108;2023-05-19T12:18:39;5.30;;;2.30;;
31618;SDS011;18230;51.502;7.108;2023-05-19T12:23:41;9.73;;;2.30;;
31618;SDS011;18230;51.502;7.108;2023-05-19T12:28:43;10.93;;;3.45;;
31618;SDS011;18230;51.502;7.108;2023-05-19T12:33:47;8.18;;;2.53;;
31618;SDS011;18230;51.502;7.108;2023-05-19T12:43:53;8.25;;;2.70;;
31618;SDS011;18230;51.502;7.108;2023-05-19T12:48:57;9.23;;;2.60;;
31618;SDS011;18230;51.502;7.108;2023-05-19T12:54:01;8.18;;;2.60;;
31618;SDS011;18230;51.502;7.108;2023-05-19T12:59:03;7.25;;;2.58;;
31618;SDS011;18230;51.502;7.108;2023-05-19T13:04:04;7.88;;;2.30;;
31618;SDS011;18230;51.502;7.108;2023-05-19T13:09:05;8.63;;;1.90;;
31618;SDS011;18230;51.502;7.108;2023-05-19T13:14:06;6.70;;;2.47;;
31618;SDS011;18230;51.502;7.108;2023-05-19T13:19:06;6.75;;;2.70;;
31618;SDS011;18230;51.502;7.108;2023-05-19T13:24:08;6.10;;;2.00;;
31618;SDS011;18230;51.502;7.108;2023-05-19T13:29:09;6.90;;;2.08;;
31618;SDS011;18230;51.502;7.108;2023-05-19T13:34:11;8.88;;;2.30;;
31618;SDS011;18230;51.502;7.108;2023-05-19T13:39:12;7.72;;;2.17;;
31618;SDS011;18230;51.502;7.108;2023-05-19T13:44:15;9.85;;;2.30;;
31618;SDS011;18230;51.502;7.108;2023-05-19T13:49:16;5.90;;;1.92;;
31618;SDS011;18230;51.502;7.108;2023-05-19T13:54:18;7.05;;;2.35;;
31618;SDS011;18230;51.502;7.108;2023-05-19T13:59:19;6.78;;;2.13;;
31618;SDS011;18230;51.502;7.108;2023-05-19T14:04:20;11.50;;;2.80;;
31618;SDS011;18230;51.502;7.108;2023-05-19T14:09:22;6.40;;;2.65;;
31618;SDS011;18230;51.502;7.108;2023-05-19T14:14:23;8.38;;;2.70;;
31618;SDS011;18230;51.502;7.108;2023-05-19T14:19:24;9.88;;;2.55;;
31618;SDS011;18230;51.502;7.108;2023-05-19T14:24:29;5.85;;;2.25;;
31618;SDS011;18230;51.502;7.108;2023-05-19T14:29:30;8.75;;;2.70;;
31618;SDS011;18230;51.502;7.108;2023-05-19T14:34:30;5.85;;;2.38;;
31618;SDS011;18230;51.502;7.108;2023-05-19T14:39:31;6.30;;;2.58;;
31618;SDS011;18230;51.502;7.108;2023-05-19T14:44:32;4.95;;;2.25;;
31618;SDS011;18230;51.502;7.108;2023-05-19T14:49:32;5.88;;;2.40;;
31618;SDS011;18230;51.502;7.108;2023-05-19T14:54:33;6.47;;;2.20;;
31618;SDS011;18230;51.502;7.108;2023-05-19T14:59:37;7.15;;;2.25;;
31618;SDS011;18230;51.502;7.108;2023-05-19T15:04:38;5.47;;;2.78;;
31618;SDS011;18230;51.502;7.108;2023-05-19T15:09:39;7.80;;;2.40;;
31618;SDS011;18230;51.502;7.108;2023-05-19T15:14:39;6.00;;;2.47;;
31618;SDS011;18230;51.502;7.108;2023-05-19T15:19:40;8.18;;;2.50;;
31618;SDS011;18230;51.502;7.108;2023-05-19T15:24:41;6.72;;;2.40;;
31618;SDS011;18230;51.502;7.108;2023-05-19T15:29:43;6.28;;;2.05;;
31618;SDS011;18230;51.502;7.108;2023-05-19T15:34:44;10.82;;;2.78;;
31618;SDS011;18230;51.502;7.108;2023-05-19T15:39:44;11.57;;;3.10;;
31618;SDS011;18230;51.502;7.108;2023-05-19T15:44:45;5.72;;;2.20;;
31618;SDS011;18230;51.502;7.108;2023-05-19T15:49:46;5.85;;;2.30;;
31618;SDS011;18230;51.502;7.108;2023-05-19T15:54:53;7.72;;;2.17;;
31618;SDS011;18230;51.502;7.108;2023-05-19T15:59:57;7.53;;;2.47;;
31618;SDS011;18230;51.502;7.108;2023-05-19T16:04:59;7.70;;;2.42;;
31618;SDS011;18230;51.502;7.108;2023-05-19T16:09:59;4.50;;;2.38;;
31618;SDS011;18230;51.502;7.108;2023-05-19T16:15:00;8.80;;;2.10;;
31618;SDS011;18230;51.502;7.108;2023-05-19T16:20:01;7.65;;;2.00;;
31618;SDS011;18230;51.502;7.108;2023-05-19T16:25:02;6.38;;;2.00;;
31618;SDS011;18230;51.502;7.108;2023-05-19T16:30:03;4.78;;;1.70;;
31618;SDS011;18230;51.502;7.108;2023-05-19T16:35:04;4.88;;;2.15;;
31618;SDS011;18230;51.502;7.108;2023-05-19T16:40:06;4.75;;;2.55;;
31618;SDS011;18230;51.502;7.108;2023-05-19T16:45:07;8.38;;;2.40;;
31618;SDS011;18230;51.502;7.108;2023-05-19T16:50:08;7.28;;;2.17;;
31618;SDS011;18230;51.502;7.108;2023-05-19T16:55:10;7.18;;;1.88;;
31618;SDS011;18230;51.502;7.108;2023-05-19T17:00:11;5.88;;;2.25;;
31618;SDS011;18230;51.502;7.108;2023-05-19T17:05:12;5.30;;;2.40;;
31618;SDS011;18230;51.502;7.108;2023-05-19T17:10:13;5.43;;;2.15;;
31618;SDS011;18230;51.502;7.108;2023-05-19T17:15:13;3.30;;;2.25;;
31618;SDS011;18230;51.502;7.108;2023-05-19T17:20:14;4.80;;;2.28;;
31618;SDS011;18230;51.502;7.108;2023-05-19T17:25:15;7.22;;;2.13;;
31618;SDS011;18230;51.502;7.108;2023-05-19T17:30:16;4.25;;;1.92;;
31618;SDS011;18230;51.502;7.108;2023-05-19T17:35:17;7.28;;;2.33;;
31618;SDS011;18230;51.502;7.108;2023-05-19T17:40:17;7.03;;;2.40;;
31618;SDS011;18230;51.502;7.108;2023-05-19T17:45:18;4.80;;;2.60;;
31618;SDS011;18230;51.502;7.108;2023-05-19T17:50:19;6.15;;;2.20;;
31618;SDS011;18230;51.502;7.108;2023-05-19T17:55:20;4.57;;;2.20;;
31618;SDS011;18230;51.502;7.108;2023-05-19T18:00:21;6.70;;;2.17;;
31618;SDS011;18230;51.502;7.108;2023-05-19T18:05:22;5.55;;;2.08;;
31618;SDS011;18230;51.502;7.108;2023-05-19T18:10:24;8.05;;;2.45;;
31618;SDS011;18230;51.502;7.108;2023-05-19T18:15:26;8.45;;;2.55;;
31618;SDS011;18230;51.502;7.108;2023-05-19T18:20:27;6.85;;;2.03;;
31618;SDS011;18230;51.502;7.108;2023-05-19T18:25:29;5.28;;;2.42;;
31618;SDS011;18230;51.502;7.108;2023-05-19T18:30:30;6.65;;;2.25;;
31618;SDS011;18230;51.502;7.108;2023-05-19T18:35:31;3.28;;;2.03;;
31618;SDS011;18230;51.502;7.108;2023-05-19T18:40:31;6.95;;;2.63;;
31618;SDS011;18230;51.502;7.108;2023-05-19T18:45:33;5.57;;;2.97;;
31618;SDS011;18230;51.502;7.108;2023-05-19T18:50:35;3.58;;;2.25;;
31618;SDS011;18230;51.502;7.108;2023-05-19T18:55:36;4.95;;;2.20;;
31618;SDS011;18230;51.502;7.108;2023-05-19T19:00:37;7.55;;;2.10;;
31618;SDS011;18230;51.502;7.108;2023-05-19T19:05:38;3.70;;;1.90;;
31618;SDS011;18230;51.502;7.108;2023-05-19T19:10:39;6.60;;;2.03;;
31618;SDS011;18230;51.502;7.108;2023-05-19T19:15:41;5.75;;;2.08;;
31618;SDS011;18230;51.502;7.108;2023-05-19T19:20:42;4.97;;;2.25;;
31618;SDS011;18230;51.502;7.108;2023-05-19T19:25:42;3.97;;;2.22;;
31618;SDS011;18230;51.502;7.108;2023-05-19T19:30:43;7.15;;;2.08;;
31618;SDS011;18230;51.502;7.108;2023-05-19T19:35:45;4.65;;;2.30;;
31618;SDS011;18230;51.502;7.108;2023-05-19T19:40:46;7.05;;;2.10;;
31618;SDS011;18230;51.502;7.108;2023-05-19T19:45:46;4.10;;;1.80;;
31618;SDS011;18230;51.502;7.108;2023-05-19T19:50:51;7.72;;;1.90;;
31618;SDS011;18230;51.502;7.108;2023-05-19T19:55:59;3.72;;;2.35;;
31618;SDS011;18230;51.502;7.108;2023-05-19T20:01:01;4.65;;;2.33;;
31618;SDS011;18230;51.502;7.108;2023-05-19T20:06:03;8.93;;;2.60;;
31618;SDS011;18230;51.502;7.108;2023-05-19T20:11:03;3.92;;;2.40;;
31618;SDS011;18230;51.502;7.108;2023-05-19T20:16:05;7.78;;;2.65;;
31618;SDS011;18230;51.502;7.108;2023-05-19T20:21:06;8.43;;;2.67;;
31618;SDS011;18230;51.502;7.108;2023-05-19T20:26:07;6.00;;;2.40;;
31618;SDS011;18230;51.502;7.108;2023-05-19T20:31:08;5.50;;;2.40;;
31618;SDS011;18230;51.502;7.108;2023-05-19T20:36:08;11.73;;;2.70;;
31618;SDS011;18230;51.502;7.108;2023-05-19T20:41:10;6.30;;;3.03;;
31618;SDS011;18230;51.502;7.108;2023-05-19T20:46:10;6.00;;;2.53;;
31618;SDS011;18230;51.502;7.108;2023-05-19T20:51:11;3.63;;;2.17;;
31618;SDS011;18230;51.502;7.108;2023-05-19T20:56:12;3.22;;;2.03;;
31618;SDS011;18230;51.502;7.108;2023-05-19T21:01:13;5.75;;;2.33;;
31618;SDS011;18230;51.502;7.108;2023-05-19T21:06:14;4.05;;;1.80;;
31618;SDS011;18230;51.502;7.108;2023-05-19T21:11:14;8.32;;;2.35;;
31618;SDS011;18230;51.502;7.108;2023-05-19T21:16:15;5.15;;;2.38;;
31618;SDS011;18230;51.502;7.108;2023-05-19T21:21:16;8.05;;;2.25;;
31618;SDS011;18230;51.502;7.108;2023-05-19T21:26:17;5.47;;;2.95;;
31618;SDS011;18230;51.502;7.108;2023-05-19T21:31:17;5.10;;;2.30;;
31618;SDS011;18230;51.502;7.108;2023-05-19T21:36:18;6.00;;;2.47;;
31618;SDS011;18230;51.502;7.108;2023-05-19T21:41:19;7.35;;;2.55;;
31618;SDS011;18230;51.502;7.108;2023-05-19T21:46:20;5.57;;;2.85;;
31618;SDS011;18230;51.502;7.108;2023-05-19T21:51:21;5.05;;;2.75;;
31618;SDS011;18230;51.502;7.108;2023-05-19T21:56:22;5.60;;;2.90;;
31618;SDS011;18230;51.502;7.108;2023-05-19T22:01:22;8.43;;;2.42;;
31618;SDS011;18230;51.502;7.108;2023-05-19T22:06:23;9.60;;;2.80;;
31618;SDS011;18230;51.502;7.108;2023-05-19T22:11:25;4.88;;;2.38;;
31618;SDS011;18230;51.502;7.108;2023-05-19T22:16:25;5.63;;;2.25;;
31618;SDS011;18230;51.502;7.108;2023-05-19T22:21:26;6.20;;;2.78;;
31618;SDS011;18230;51.502;7.108;2023-05-19T22:26:27;9.95;;;2.70;;
31618;SDS011;18230;51.502;7.108;2023-05-19T22:31:28;6.10;;;2.50;;
31618;SDS011;18230;51.502;7.108;2023-05-19T22:36:29;5.88;;;2.88;;
31618;SDS011;18230;51.502;7.108;2023-05-19T22:41:30;9.70;;;2.60;;
31618;SDS011;18230;51.502;7.108;2023-05-19T22:46:31;5.68;;;2.45;;
31618;SDS011;18230;51.502;7.108;2023-05-19T22:51:33;6.00;;;2.40;;
31618;SDS011;18230;51.502;7.108;2023-05-19T22:56:33;6.35;;;2.85;;
31618;SDS011;18230;51.502;7.108;2023-05-19T23:01:34;8.02;;;2.55;;
31618;SDS011;18230;51.502;7.108;2023-05-19T23:06:35;4.05;;;2.10;;
31618;SDS011;18230;51.502;7.108;2023-05-19T23:11:36;4.85;;;2.38;;
31618;SDS011;18230;51.502;7.108;2023-05-19T23:16:37;5.65;;;2.60;;
31618;SDS011;18230;51.502;7.108;2023-05-19T23:21:37;5.97;;;2.53;;
31618;SDS011;18230;51.502;7.108;2023-05-19T23:26:43;6.13;;;2.67;;
31618;SDS011;18230;51.502;7.108;2023-05-19T23:31:44;8.23;;;2.85;;
31618;SDS011;18230;51.502;7.108;2023-05-19T23:36:44;7.85;;;2.90;;
31618;SDS011;18230;51.502;7.108;2023-05-19T23:41:45;4.40;;;2.70;;
31618;SDS011;18230;51.502;7.108;2023-05-19T23:46:46;4.70;;;2.47;;
31618;SDS011;18230;51.502;7.108;2023-05-19T23:51:46;5.55;;;2.58;;
31618;SDS011;18230;51.502;7.108;2023-05-19T23:56:47;3.40;;;2.25;;
